sensor_id;sensor_type;location;lat;lon;timestamp;temperature;humidity
7399;DHT22;3740;50.700;7.184;2024-02-14T00:01:17;10.10;99.90
7399;DHT22;3740;50.700;7.184;2024-02-14T00:03:43;10.00;99.90
7399;DHT22;3740;50.700;7.184;2024-02-14T00:06:09;10.10;99.90
7399;DHT22;3740;50.700;7.184;2024-02-14T00:08:35;10.00;99.90
7399;DHT22;3740;50.700;7.184;2024-02-14T00:11:01;10.00;99.90
7399;DHT22;3740;50.700;7.184;2024-02-14T00:13:27;10.00;99.90
7399;DHT22;3740;50.700;7.184;2024-02-14T00:15:53;10.00;99.90
7399;DHT22;3740;50.700;7.184;2024-02-14T00:18:18;10.00;99.90
7399;DHT22;3740;50.700;7.184;2024-02-14T00:20:44;10.10;99.90
7399;DHT22;3740;50.700;7.184;2024-02-14T00:23:10;10.00;99.90
7399;DHT22;3740;50.700;7.184;2024-02-14T00:25:37;10.00;99.90
7399;DHT22;3740;50.700;7.184;2024-02-14T00:28:02;10.10;99.90
7399;DHT22;3740;50.700;7.184;2024-02-14T00:30:29;10.10;99.90
7399;DHT22;3740;50.700;7.184;2024-02-14T00:32:55;10.10;99.90
7399;DHT22;3740;50.700;7.184;2024-02-14T00:35:21;10.20;99.90
7399;DHT22;3740;50.700;7.184;2024-02-14T00:37:47;10.20;99.90
7399;DHT22;3740;50.700;7.184;2024-02-14T00:40:12;10.30;99.90
7399;DHT22;3740;50.700;7.184;2024-02-14T00:42:38;10.20;99.90
7399;DHT22;3740;50.700;7.184;2024-02-14T00:45:04;10.20;99.90
7399;DHT22;3740;50.700;7.184;2024-02-14T00:47:32;10.20;99.90
7399;DHT22;3740;50.700;7.184;2024-02-14T00:49:58;10.20;99.90
7399;DHT22;3740;50.700;7.184;2024-02-14T00:52:23;10.20;99.90
7399;DHT22;3740;50.700;7.184;2024-02-14T00:54:49;10.20;99.90
7399;DHT22;3740;50.700;7.184;2024-02-14T00:57:15;10.20;99.90
7399;DHT22;3740;50.700;7.184;2024-02-14T00:59:41;10.80;99.90
7399;DHT22;3740;50.700;7.184;2024-02-14T01:02:06;10.20;99.90
7399;DHT22;3740;50.700;7.184;2024-02-14T01:04:32;10.20;99.90
7399;DHT22;3740;50.700;7.184;2024-02-14T01:06:58;10.20;99.90
7399;DHT22;3740;50.700;7.184;2024-02-14T01:09:23;10.20;99.90
7399;DHT22;3740;50.700;7.184;2024-02-14T01:11:49;10.20;99.90
7399;DHT22;3740;50.700;7.184;2024-02-14T01:14:16;10.30;99.90
7399;DHT22;3740;50.700;7.184;2024-02-14T01:16:44;10.30;99.90
7399;DHT22;3740;50.700;7.184;2024-02-14T01:19:11;10.20;99.90
7399;DHT22;3740;50.700;7.184;2024-02-14T01:21:37;10.20;99.90
7399;DHT22;3740;50.700;7.184;2024-02-14T01:24:03;10.20;99.90
7399;DHT22;3740;50.700;7.184;2024-02-14T01:26:30;10.20;99.90
7399;DHT22;3740;50.700;7.184;2024-02-14T01:28:56;10.20;99.90
7399;DHT22;3740;50.700;7.184;2024-02-14T01:31:21;10.30;99.90
7399;DHT22;3740;50.700;7.184;2024-02-14T01:33:47;10.20;99.90
7399;DHT22;3740;50.700;7.184;2024-02-14T01:36:13;10.20;99.90
7399;DHT22;3740;50.700;7.184;2024-02-14T01:38:38;10.20;99.90
7399;DHT22;3740;50.700;7.184;2024-02-14T01:41:05;10.10;99.90
7399;DHT22;3740;50.700;7.184;2024-02-14T01:43:31;10.10;99.90
7399;DHT22;3740;50.700;7.184;2024-02-14T01:46:06;10.10;99.90
7399;DHT22;3740;50.700;7.184;2024-02-14T01:48:32;10.20;99.90
7399;DHT22;3740;50.700;7.184;2024-02-14T01:50:59;10.10;99.90
7399;DHT22;3740;50.700;7.184;2024-02-14T01:53:25;10.10;99.90
7399;DHT22;3740;50.700;7.184;2024-02-14T01:55:52;10.10;99.90
7399;DHT22;3740;50.700;7.184;2024-02-14T01:58:18;10.10;99.90
7399;DHT22;3740;50.700;7.184;2024-02-14T02:00:44;10.10;99.90
7399;DHT22;3740;50.700;7.184;2024-02-14T02:03:11;10.10;99.90
7399;DHT22;3740;50.700;7.184;2024-02-14T02:05:36;10.10;99.90
7399;DHT22;3740;50.700;7.184;2024-02-14T02:08:02;10.10;99.90
7399;DHT22;3740;50.700;7.184;2024-02-14T02:10:28;10.00;99.90
7399;DHT22;3740;50.700;7.184;2024-02-14T02:12:58;10.00;99.90
7399;DHT22;3740;50.700;7.184;2024-02-14T02:15:25;10.00;99.90
7399;DHT22;3740;50.700;7.184;2024-02-14T02:17:52;10.10;99.90
7399;DHT22;3740;50.700;7.184;2024-02-14T02:20:18;10.10;99.90
7399;DHT22;3740;50.700;7.184;2024-02-14T02:22:46;10.10;99.90
7399;DHT22;3740;50.700;7.184;2024-02-14T02:25:13;10.10;99.90
7399;DHT22;3740;50.700;7.184;2024-02-14T02:27:38;10.00;99.90
7399;DHT22;3740;50.700;7.184;2024-02-14T02:30:05;10.00;99.90
7399;DHT22;3740;50.700;7.184;2024-02-14T02:32:32;9.90;99.90
7399;DHT22;3740;50.700;7.184;2024-02-14T02:34:57;10.00;99.90
7399;DHT22;3740;50.700;7.184;2024-02-14T02:37:25;9.90;99.90
7399;DHT22;3740;50.700;7.184;2024-02-14T02:39:50;10.00;99.90
7399;DHT22;3740;50.700;7.184;2024-02-14T02:42:17;10.00;99.90
7399;DHT22;3740;50.700;7.184;2024-02-14T02:44:46;10.00;99.90
7399;DHT22;3740;50.700;7.184;2024-02-14T02:47:12;10.00;99.90
7399;DHT22;3740;50.700;7.184;2024-02-14T02:49:38;10.10;99.90
7399;DHT22;3740;50.700;7.184;2024-02-14T02:52:04;10.10;99.90
7399;DHT22;3740;50.700;7.184;2024-02-14T02:54:29;10.10;99.90
7399;DHT22;3740;50.700;7.184;2024-02-14T02:56:55;10.10;99.90
7399;DHT22;3740;50.700;7.184;2024-02-14T02:59:20;10.20;99.90
7399;DHT22;3740;50.700;7.184;2024-02-14T03:01:47;10.30;99.90
7399;DHT22;3740;50.700;7.184;2024-02-14T03:04:15;10.30;99.90
7399;DHT22;3740;50.700;7.184;2024-02-14T03:06:40;10.30;99.90
7399;DHT22;3740;50.700;7.184;2024-02-14T03:09:08;10.30;99.90
7399;DHT22;3740;50.700;7.184;2024-02-14T03:11:34;10.30;99.90
7399;DHT22;3740;50.700;7.184;2024-02-14T03:14:01;10.20;99.90
7399;DHT22;3740;50.700;7.184;2024-02-14T03:16:27;10.30;99.90
7399;DHT22;3740;50.700;7.184;2024-02-14T03:18:52;10.30;99.90
7399;DHT22;3740;50.700;7.184;2024-02-14T03:21:20;10.30;99.90
7399;DHT22;3740;50.700;7.184;2024-02-14T03:23:45;10.30;99.90
7399;DHT22;3740;50.700;7.184;2024-02-14T03:26:11;10.30;99.90
7399;DHT22;3740;50.700;7.184;2024-02-14T03:28:36;10.30;99.90
7399;DHT22;3740;50.700;7.184;2024-02-14T03:31:02;10.30;99.90
7399;DHT22;3740;50.700;7.184;2024-02-14T03:33:28;10.30;99.90
7399;DHT22;3740;50.700;7.184;2024-02-14T03:35:55;10.30;99.90
7399;DHT22;3740;50.700;7.184;2024-02-14T03:38:27;10.30;99.90
7399;DHT22;3740;50.700;7.184;2024-02-14T03:40:53;11.00;99.90
7399;DHT22;3740;50.700;7.184;2024-02-14T03:43:19;10.30;99.90
7399;DHT22;3740;50.700;7.184;2024-02-14T03:45:45;10.30;99.90
7399;DHT22;3740;50.700;7.184;2024-02-14T03:48:11;10.30;99.90
7399;DHT22;3740;50.700;7.184;2024-02-14T03:50:40;10.30;99.90
7399;DHT22;3740;50.700;7.184;2024-02-14T03:53:08;10.30;99.90
7399;DHT22;3740;50.700;7.184;2024-02-14T03:55:39;10.30;99.90
7399;DHT22;3740;50.700;7.184;2024-02-14T03:58:04;10.30;99.90
7399;DHT22;3740;50.700;7.184;2024-02-14T04:00:30;10.30;99.90
7399;DHT22;3740;50.700;7.184;2024-02-14T04:02:56;10.30;99.90
7399;DHT22;3740;50.700;7.184;2024-02-14T04:05:25;10.30;99.90
7399;DHT22;3740;50.700;7.184;2024-02-14T04:07:53;10.20;99.90
7399;DHT22;3740;50.700;7.184;2024-02-14T04:10:19;10.20;99.90
7399;DHT22;3740;50.700;7.184;2024-02-14T04:12:46;10.20;99.90
7399;DHT22;3740;50.700;7.184;2024-02-14T04:15:11;10.20;99.90
7399;DHT22;3740;50.700;7.184;2024-02-14T04:17:39;10.30;99.90
7399;DHT22;3740;50.700;7.184;2024-02-14T04:20:05;10.30;99.90
7399;DHT22;3740;50.700;7.184;2024-02-14T04:22:31;10.30;99.90
7399;DHT22;3740;50.700;7.184;2024-02-14T04:24:56;10.30;99.90
7399;DHT22;3740;50.700;7.184;2024-02-14T04:27:22;10.20;99.90
7399;DHT22;3740;50.700;7.184;2024-02-14T04:29:48;10.30;99.90
7399;DHT22;3740;50.700;7.184;2024-02-14T04:32:14;10.30;99.90
7399;DHT22;3740;50.700;7.184;2024-02-14T04:34:39;10.30;99.90
7399;DHT22;3740;50.700;7.184;2024-02-14T04:37:05;10.30;99.90
7399;DHT22;3740;50.700;7.184;2024-02-14T04:39:38;10.30;99.90
7399;DHT22;3740;50.700;7.184;2024-02-14T04:42:03;10.30;99.90
7399;DHT22;3740;50.700;7.184;2024-02-14T04:44:30;10.40;99.90
7399;DHT22;3740;50.700;7.184;2024-02-14T04:46:57;10.30;99.90
7399;DHT22;3740;50.700;7.184;2024-02-14T04:49:24;10.40;99.90
7399;DHT22;3740;50.700;7.184;2024-02-14T04:51:52;10.40;99.90
7399;DHT22;3740;50.700;7.184;2024-02-14T04:54:18;10.30;99.90
7399;DHT22;3740;50.700;7.184;2024-02-14T04:56:44;10.30;99.90
7399;DHT22;3740;50.700;7.184;2024-02-14T04:59:11;10.20;99.90
7399;DHT22;3740;50.700;7.184;2024-02-14T05:01:37;10.30;99.90
7399;DHT22;3740;50.700;7.184;2024-02-14T05:04:03;10.40;99.90
7399;DHT22;3740;50.700;7.184;2024-02-14T05:06:29;10.40;99.90
7399;DHT22;3740;50.700;7.184;2024-02-14T05:08:55;10.40;99.90
7399;DHT22;3740;50.700;7.184;2024-02-14T05:11:20;10.30;99.90
7399;DHT22;3740;50.700;7.184;2024-02-14T05:13:47;10.30;99.90
7399;DHT22;3740;50.700;7.184;2024-02-14T05:16:12;10.30;99.90
7399;DHT22;3740;50.700;7.184;2024-02-14T05:18:38;10.30;99.90
7399;DHT22;3740;50.700;7.184;2024-02-14T05:21:07;10.40;99.90
7399;DHT22;3740;50.700;7.184;2024-02-14T05:23:33;10.40;99.90
7399;DHT22;3740;50.700;7.184;2024-02-14T05:26:00;10.40;99.90
7399;DHT22;3740;50.700;7.184;2024-02-14T05:28:27;10.30;99.90
7399;DHT22;3740;50.700;7.184;2024-02-14T05:30:54;10.40;99.90
7399;DHT22;3740;50.700;7.184;2024-02-14T05:33:19;10.30;99.90
7399;DHT22;3740;50.700;7.184;2024-02-14T05:35:48;10.40;99.90
7399;DHT22;3740;50.700;7.184;2024-02-14T05:38:13;10.40;99.90
7399;DHT22;3740;50.700;7.184;2024-02-14T05:40:40;10.40;99.90
7399;DHT22;3740;50.700;7.184;2024-02-14T05:43:05;10.40;99.90
7399;DHT22;3740;50.700;7.184;2024-02-14T05:45:32;10.40;99.90
7399;DHT22;3740;50.700;7.184;2024-02-14T05:47:58;10.40;99.90
7399;DHT22;3740;50.700;7.184;2024-02-14T05:50:24;10.40;99.90
7399;DHT22;3740;50.700;7.184;2024-02-14T05:52:49;10.40;99.90
7399;DHT22;3740;50.700;7.184;2024-02-14T05:55:15;10.40;99.90
7399;DHT22;3740;50.700;7.184;2024-02-14T05:57:40;10.40;99.90
7399;DHT22;3740;50.700;7.184;2024-02-14T06:00:07;10.40;99.90
7399;DHT22;3740;50.700;7.184;2024-02-14T06:02:34;10.40;99.90
7399;DHT22;3740;50.700;7.184;2024-02-14T06:05:00;10.40;99.90
7399;DHT22;3740;50.700;7.184;2024-02-14T06:07:25;10.40;99.90
7399;DHT22;3740;50.700;7.184;2024-02-14T06:09:51;10.40;99.90
7399;DHT22;3740;50.700;7.184;2024-02-14T06:12:16;10.40;99.90
7399;DHT22;3740;50.700;7.184;2024-02-14T06:14:42;10.40;99.90
7399;DHT22;3740;50.700;7.184;2024-02-14T06:17:07;10.40;99.90
7399;DHT22;3740;50.700;7.184;2024-02-14T06:19:33;10.40;99.90
7399;DHT22;3740;50.700;7.184;2024-02-14T06:22:00;10.50;99.90
7399;DHT22;3740;50.700;7.184;2024-02-14T06:24:26;10.50;99.90
7399;DHT22;3740;50.700;7.184;2024-02-14T06:26:51;10.40;99.90
7399;DHT22;3740;50.700;7.184;2024-02-14T06:29:17;10.40;99.90
7399;DHT22;3740;50.700;7.184;2024-02-14T06:31:43;10.40;99.90
7399;DHT22;3740;50.700;7.184;2024-02-14T06:34:08;10.40;99.90
7399;DHT22;3740;50.700;7.184;2024-02-14T06:36:34;10.50;99.90
7399;DHT22;3740;50.700;7.184;2024-02-14T06:38:59;10.50;99.90
7399;DHT22;3740;50.700;7.184;2024-02-14T06:41:25;10.40;99.90
7399;DHT22;3740;50.700;7.184;2024-02-14T06:43:50;10.40;99.90
7399;DHT22;3740;50.700;7.184;2024-02-14T06:46:16;10.40;99.90
7399;DHT22;3740;50.700;7.184;2024-02-14T06:48:42;10.40;99.90
7399;DHT22;3740;50.700;7.184;2024-02-14T06:51:07;10.40;99.90
7399;DHT22;3740;50.700;7.184;2024-02-14T06:53:33;10.40;99.90
7399;DHT22;3740;50.700;7.184;2024-02-14T06:55:59;10.40;99.90
7399;DHT22;3740;50.700;7.184;2024-02-14T06:58:24;10.50;99.90
7399;DHT22;3740;50.700;7.184;2024-02-14T07:00:50;10.50;99.90
7399;DHT22;3740;50.700;7.184;2024-02-14T07:03:15;10.50;99.90
7399;DHT22;3740;50.700;7.184;2024-02-14T07:05:41;10.50;99.90
7399;DHT22;3740;50.700;7.184;2024-02-14T07:08:07;10.50;99.90
7399;DHT22;3740;50.700;7.184;2024-02-14T07:10:33;10.60;99.90
7399;DHT22;3740;50.700;7.184;2024-02-14T07:12:59;10.60;99.90
7399;DHT22;3740;50.700;7.184;2024-02-14T07:15:24;10.60;99.90
7399;DHT22;3740;50.700;7.184;2024-02-14T07:17:56;10.70;99.90
7399;DHT22;3740;50.700;7.184;2024-02-14T07:20:24;10.80;99.90
7399;DHT22;3740;50.700;7.184;2024-02-14T07:22:52;10.70;99.90
7399;DHT22;3740;50.700;7.184;2024-02-14T07:25:19;10.70;99.90
7399;DHT22;3740;50.700;7.184;2024-02-14T07:27:45;10.70;99.90
7399;DHT22;3740;50.700;7.184;2024-02-14T07:30:12;10.70;99.90
7399;DHT22;3740;50.700;7.184;2024-02-14T07:32:37;10.80;99.90
7399;DHT22;3740;50.700;7.184;2024-02-14T07:35:04;10.80;99.90
7399;DHT22;3740;50.700;7.184;2024-02-14T07:37:30;10.80;99.90
7399;DHT22;3740;50.700;7.184;2024-02-14T07:39:56;10.80;99.90
7399;DHT22;3740;50.700;7.184;2024-02-14T07:42:21;10.70;99.90
7399;DHT22;3740;50.700;7.184;2024-02-14T07:44:47;10.70;99.90
7399;DHT22;3740;50.700;7.184;2024-02-14T07:47:13;10.70;99.90
7399;DHT22;3740;50.700;7.184;2024-02-14T07:49:39;10.80;99.90
7399;DHT22;3740;50.700;7.184;2024-02-14T07:52:06;10.80;99.90
7399;DHT22;3740;50.700;7.184;2024-02-14T07:54:32;10.80;99.90
7399;DHT22;3740;50.700;7.184;2024-02-14T07:56:57;10.80;99.90
7399;DHT22;3740;50.700;7.184;2024-02-14T07:59:23;10.90;99.90
7399;DHT22;3740;50.700;7.184;2024-02-14T08:01:48;11.00;99.90
7399;DHT22;3740;50.700;7.184;2024-02-14T08:04:14;11.00;99.90
7399;DHT22;3740;50.700;7.184;2024-02-14T08:06:41;11.10;99.90
7399;DHT22;3740;50.700;7.184;2024-02-14T08:09:06;11.10;99.90
7399;DHT22;3740;50.700;7.184;2024-02-14T08:11:35;11.10;99.90
7399;DHT22;3740;50.700;7.184;2024-02-14T08:14:01;11.10;99.90
7399;DHT22;3740;50.700;7.184;2024-02-14T08:16:26;11.20;99.90
7399;DHT22;3740;50.700;7.184;2024-02-14T08:18:52;11.20;99.90
7399;DHT22;3740;50.700;7.184;2024-02-14T08:21:27;11.30;99.90
7399;DHT22;3740;50.700;7.184;2024-02-14T08:23:53;11.30;99.90
7399;DHT22;3740;50.700;7.184;2024-02-14T08:26:19;11.30;99.90
7399;DHT22;3740;50.700;7.184;2024-02-14T08:28:45;11.30;99.90
7399;DHT22;3740;50.700;7.184;2024-02-14T08:31:15;11.30;99.90
7399;DHT22;3740;50.700;7.184;2024-02-14T08:33:41;11.30;99.90
7399;DHT22;3740;50.700;7.184;2024-02-14T08:36:07;11.30;99.90
7399;DHT22;3740;50.700;7.184;2024-02-14T08:38:33;11.40;99.90
7399;DHT22;3740;50.700;7.184;2024-02-14T08:41:03;11.40;99.90
7399;DHT22;3740;50.700;7.184;2024-02-14T08:43:29;11.40;99.90
7399;DHT22;3740;50.700;7.184;2024-02-14T08:45:55;11.30;99.90
7399;DHT22;3740;50.700;7.184;2024-02-14T08:48:21;11.30;99.90
7399;DHT22;3740;50.700;7.184;2024-02-14T08:50:47;11.40;99.90
7399;DHT22;3740;50.700;7.184;2024-02-14T08:53:13;11.60;99.90
7399;DHT22;3740;50.700;7.184;2024-02-14T08:55:40;11.70;99.90
7399;DHT22;3740;50.700;7.184;2024-02-14T08:58:05;11.60;99.90
7399;DHT22;3740;50.700;7.184;2024-02-14T09:00:31;11.50;99.90
7399;DHT22;3740;50.700;7.184;2024-02-14T09:02:57;11.60;99.90
7399;DHT22;3740;50.700;7.184;2024-02-14T09:05:25;11.60;99.90
7399;DHT22;3740;50.700;7.184;2024-02-14T09:07:51;11.70;99.90
7399;DHT22;3740;50.700;7.184;2024-02-14T09:10:17;11.80;99.90
7399;DHT22;3740;50.700;7.184;2024-02-14T09:12:42;11.80;99.90
7399;DHT22;3740;50.700;7.184;2024-02-14T09:15:09;11.80;99.90
7399;DHT22;3740;50.700;7.184;2024-02-14T09:17:34;11.80;99.90
7399;DHT22;3740;50.700;7.184;2024-02-14T09:20:00;11.80;99.90
7399;DHT22;3740;50.700;7.184;2024-02-14T09:22:26;11.80;99.90
7399;DHT22;3740;50.700;7.184;2024-02-14T09:24:52;11.90;99.90
7399;DHT22;3740;50.700;7.184;2024-02-14T09:27:18;12.00;99.90
7399;DHT22;3740;50.700;7.184;2024-02-14T09:29:43;12.10;99.90
7399;DHT22;3740;50.700;7.184;2024-02-14T09:32:09;12.30;99.90
7399;DHT22;3740;50.700;7.184;2024-02-14T09:34:35;12.30;99.90
7399;DHT22;3740;50.700;7.184;2024-02-14T09:37:00;12.40;99.90
7399;DHT22;3740;50.700;7.184;2024-02-14T09:39:26;12.60;99.90
7399;DHT22;3740;50.700;7.184;2024-02-14T09:41:58;12.50;99.90
7399;DHT22;3740;50.700;7.184;2024-02-14T09:44:29;12.60;99.90
7399;DHT22;3740;50.700;7.184;2024-02-14T09:46:56;12.70;99.90
7399;DHT22;3740;50.700;7.184;2024-02-14T09:49:24;12.60;99.90
7399;DHT22;3740;50.700;7.184;2024-02-14T09:51:50;12.70;99.90
7399;DHT22;3740;50.700;7.184;2024-02-14T09:54:17;12.70;99.90
7399;DHT22;3740;50.700;7.184;2024-02-14T09:56:50;12.80;99.90
7399;DHT22;3740;50.700;7.184;2024-02-14T09:59:19;12.80;99.90
7399;DHT22;3740;50.700;7.184;2024-02-14T10:01:44;12.80;99.90
7399;DHT22;3740;50.700;7.184;2024-02-14T10:04:11;12.90;99.90
7399;DHT22;3740;50.700;7.184;2024-02-14T10:06:37;13.00;99.90
7399;DHT22;3740;50.700;7.184;2024-02-14T10:09:02;13.00;99.90
7399;DHT22;3740;50.700;7.184;2024-02-14T10:11:28;13.20;99.90
7399;DHT22;3740;50.700;7.184;2024-02-14T10:13:53;13.10;99.90
7399;DHT22;3740;50.700;7.184;2024-02-14T10:16:22;13.00;99.90
7399;DHT22;3740;50.700;7.184;2024-02-14T10:18:48;12.90;99.90
7399;DHT22;3740;50.700;7.184;2024-02-14T10:21:16;12.90;99.90
7399;DHT22;3740;50.700;7.184;2024-02-14T10:23:45;12.90;99.90
7399;DHT22;3740;50.700;7.184;2024-02-14T10:26:13;12.90;99.90
7399;DHT22;3740;50.700;7.184;2024-02-14T10:28:42;12.80;99.90
7399;DHT22;3740;50.700;7.184;2024-02-14T10:31:10;12.80;99.90
7399;DHT22;3740;50.700;7.184;2024-02-14T10:33:36;12.90;99.90
7399;DHT22;3740;50.700;7.184;2024-02-14T10:36:02;12.90;99.90
7399;DHT22;3740;50.700;7.184;2024-02-14T10:38:31;12.90;99.90
7399;DHT22;3740;50.700;7.184;2024-02-14T10:41:00;12.90;99.90
7399;DHT22;3740;50.700;7.184;2024-02-14T10:43:26;12.90;99.90
7399;DHT22;3740;50.700;7.184;2024-02-14T10:45:53;12.90;99.90
7399;DHT22;3740;50.700;7.184;2024-02-14T10:48:22;12.80;99.90
7399;DHT22;3740;50.700;7.184;2024-02-14T10:50:53;12.80;99.90
7399;DHT22;3740;50.700;7.184;2024-02-14T10:53:19;12.80;99.90
7399;DHT22;3740;50.700;7.184;2024-02-14T10:55:47;12.80;99.90
7399;DHT22;3740;50.700;7.184;2024-02-14T10:58:15;12.80;99.90
7399;DHT22;3740;50.700;7.184;2024-02-14T11:00:42;12.80;99.90
7399;DHT22;3740;50.700;7.184;2024-02-14T11:03:08;12.90;99.90
7399;DHT22;3740;50.700;7.184;2024-02-14T11:05:45;12.90;99.90
7399;DHT22;3740;50.700;7.184;2024-02-14T11:08:14;12.90;99.90
7399;DHT22;3740;50.700;7.184;2024-02-14T11:10:40;12.90;99.90
7399;DHT22;3740;50.700;7.184;2024-02-14T11:13:10;12.90;99.90
7399;DHT22;3740;50.700;7.184;2024-02-14T11:15:37;12.80;99.90
7399;DHT22;3740;50.700;7.184;2024-02-14T11:18:06;12.80;99.90
7399;DHT22;3740;50.700;7.184;2024-02-14T11:20:36;12.80;99.90
7399;DHT22;3740;50.700;7.184;2024-02-14T11:23:06;12.80;99.90
7399;DHT22;3740;50.700;7.184;2024-02-14T11:25:33;12.90;99.90
7399;DHT22;3740;50.700;7.184;2024-02-14T11:28:17;13.00;99.90
7399;DHT22;3740;50.700;7.184;2024-02-14T11:30:45;13.00;99.90
7399;DHT22;3740;50.700;7.184;2024-02-14T11:33:23;13.10;99.90
7399;DHT22;3740;50.700;7.184;2024-02-14T11:35:53;13.20;99.90
7399;DHT22;3740;50.700;7.184;2024-02-14T11:38:23;13.20;99.90
7399;DHT22;3740;50.700;7.184;2024-02-14T11:40:55;13.30;99.90
7399;DHT22;3740;50.700;7.184;2024-02-14T11:43:24;13.20;99.90
7399;DHT22;3740;50.700;7.184;2024-02-14T11:45:50;13.30;99.90
7399;DHT22;3740;50.700;7.184;2024-02-14T11:48:18;13.40;99.90
7399;DHT22;3740;50.700;7.184;2024-02-14T11:50:45;13.40;99.90
7399;DHT22;3740;50.700;7.184;2024-02-14T11:53:11;13.40;99.90
7399;DHT22;3740;50.700;7.184;2024-02-14T11:55:40;13.30;99.90
7399;DHT22;3740;50.700;7.184;2024-02-14T11:58:10;13.40;99.90
7399;DHT22;3740;50.700;7.184;2024-02-14T12:00:42;13.40;99.90
7399;DHT22;3740;50.700;7.184;2024-02-14T12:03:17;13.40;99.90
7399;DHT22;3740;50.700;7.184;2024-02-14T12:05:45;13.50;99.90
7399;DHT22;3740;50.700;7.184;2024-02-14T12:08:12;13.50;99.90
7399;DHT22;3740;50.700;7.184;2024-02-14T12:10:38;13.50;99.90
7399;DHT22;3740;50.700;7.184;2024-02-14T12:13:22;13.50;99.90
7399;DHT22;3740;50.700;7.184;2024-02-14T12:15:49;13.50;99.90
7399;DHT22;3740;50.700;7.184;2024-02-14T12:18:20;13.50;99.90
7399;DHT22;3740;50.700;7.184;2024-02-14T12:20:46;13.50;99.90
7399;DHT22;3740;50.700;7.184;2024-02-14T12:23:18;13.50;99.90
7399;DHT22;3740;50.700;7.184;2024-02-14T12:25:44;13.50;99.90
7399;DHT22;3740;50.700;7.184;2024-02-14T12:28:20;13.40;99.90
7399;DHT22;3740;50.700;7.184;2024-02-14T12:30:51;13.30;99.90
7399;DHT22;3740;50.700;7.184;2024-02-14T12:33:22;13.40;99.90
7399;DHT22;3740;50.700;7.184;2024-02-14T12:35:50;13.40;99.90
7399;DHT22;3740;50.700;7.184;2024-02-14T12:38:18;13.40;99.90
7399;DHT22;3740;50.700;7.184;2024-02-14T12:40:44;13.40;99.90
7399;DHT22;3740;50.700;7.184;2024-02-14T12:43:14;13.50;99.90
7399;DHT22;3740;50.700;7.184;2024-02-14T12:45:40;13.60;99.90
7399;DHT22;3740;50.700;7.184;2024-02-14T12:48:10;13.50;99.90
7399;DHT22;3740;50.700;7.184;2024-02-14T12:50:37;13.50;99.90
7399;DHT22;3740;50.700;7.184;2024-02-14T12:53:04;13.50;99.90
7399;DHT22;3740;50.700;7.184;2024-02-14T12:55:30;13.50;99.90
7399;DHT22;3740;50.700;7.184;2024-02-14T12:57:56;13.50;99.90
7399;DHT22;3740;50.700;7.184;2024-02-14T13:00:23;13.40;99.90
7399;DHT22;3740;50.700;7.184;2024-02-14T13:02:49;13.30;99.90
7399;DHT22;3740;50.700;7.184;2024-02-14T13:05:14;13.30;99.90
7399;DHT22;3740;50.700;7.184;2024-02-14T13:07:41;13.20;99.90
7399;DHT22;3740;50.700;7.184;2024-02-14T13:10:07;13.20;99.90
7399;DHT22;3740;50.700;7.184;2024-02-14T13:12:35;13.10;99.90
7399;DHT22;3740;50.700;7.184;2024-02-14T13:15:00;13.00;99.90
7399;DHT22;3740;50.700;7.184;2024-02-14T13:17:26;13.00;99.90
7399;DHT22;3740;50.700;7.184;2024-02-14T13:19:52;13.00;99.90
7399;DHT22;3740;50.700;7.184;2024-02-14T13:22:19;13.00;99.90
7399;DHT22;3740;50.700;7.184;2024-02-14T13:24:44;13.00;99.90
7399;DHT22;3740;50.700;7.184;2024-02-14T13:27:10;13.00;99.90
7399;DHT22;3740;50.700;7.184;2024-02-14T13:29:35;13.00;99.90
7399;DHT22;3740;50.700;7.184;2024-02-14T13:32:01;12.90;99.90
7399;DHT22;3740;50.700;7.184;2024-02-14T13:34:28;12.90;99.90
7399;DHT22;3740;50.700;7.184;2024-02-14T13:36:54;12.90;99.90
7399;DHT22;3740;50.700;7.184;2024-02-14T13:39:19;12.90;99.90
7399;DHT22;3740;50.700;7.184;2024-02-14T13:41:45;12.90;99.90
7399;DHT22;3740;50.700;7.184;2024-02-14T13:44:11;12.90;99.90
7399;DHT22;3740;50.700;7.184;2024-02-14T13:46:36;12.80;99.90
7399;DHT22;3740;50.700;7.184;2024-02-14T13:49:03;12.80;99.90
7399;DHT22;3740;50.700;7.184;2024-02-14T13:51:28;12.80;99.90
7399;DHT22;3740;50.700;7.184;2024-02-14T13:53:54;12.80;99.90
7399;DHT22;3740;50.700;7.184;2024-02-14T13:56:21;12.70;99.90
7399;DHT22;3740;50.700;7.184;2024-02-14T13:58:48;12.70;99.90
7399;DHT22;3740;50.700;7.184;2024-02-14T14:01:15;12.60;99.90
7399;DHT22;3740;50.700;7.184;2024-02-14T14:03:40;12.50;99.90
7399;DHT22;3740;50.700;7.184;2024-02-14T14:06:06;12.40;99.90
7399;DHT22;3740;50.700;7.184;2024-02-14T14:08:34;12.30;99.90
7399;DHT22;3740;50.700;7.184;2024-02-14T14:11:02;12.20;99.90
7399;DHT22;3740;50.700;7.184;2024-02-14T14:13:28;12.20;99.90
7399;DHT22;3740;50.700;7.184;2024-02-14T14:15:56;12.20;99.90
7399;DHT22;3740;50.700;7.184;2024-02-14T14:18:22;12.20;99.90
7399;DHT22;3740;50.700;7.184;2024-02-14T14:20:49;12.30;99.90
7399;DHT22;3740;50.700;7.184;2024-02-14T14:23:14;12.40;99.90
7399;DHT22;3740;50.700;7.184;2024-02-14T14:25:40;12.40;99.90
7399;DHT22;3740;50.700;7.184;2024-02-14T14:28:06;12.40;99.90
7399;DHT22;3740;50.700;7.184;2024-02-14T14:30:33;12.50;99.90
7399;DHT22;3740;50.700;7.184;2024-02-14T14:32:58;12.50;99.90
7399;DHT22;3740;50.700;7.184;2024-02-14T14:35:25;12.50;99.90
7399;DHT22;3740;50.700;7.184;2024-02-14T14:37:50;12.50;99.90
7399;DHT22;3740;50.700;7.184;2024-02-14T14:40:17;12.50;99.90
7399;DHT22;3740;50.700;7.184;2024-02-14T14:42:43;12.50;99.90
7399;DHT22;3740;50.700;7.184;2024-02-14T14:45:08;12.50;99.90
7399;DHT22;3740;50.700;7.184;2024-02-14T14:47:34;12.50;99.90
7399;DHT22;3740;50.700;7.184;2024-02-14T14:50:00;12.40;99.90
7399;DHT22;3740;50.700;7.184;2024-02-14T14:52:26;12.30;99.90
7399;DHT22;3740;50.700;7.184;2024-02-14T14:54:52;12.30;99.90
7399;DHT22;3740;50.700;7.184;2024-02-14T14:57:17;12.20;99.90
7399;DHT22;3740;50.700;7.184;2024-02-14T14:59:43;12.10;99.90
7399;DHT22;3740;50.700;7.184;2024-02-14T15:02:09;12.10;99.90
7399;DHT22;3740;50.700;7.184;2024-02-14T15:04:35;12.20;99.90
7399;DHT22;3740;50.700;7.184;2024-02-14T15:07:02;12.20;99.90
7399;DHT22;3740;50.700;7.184;2024-02-14T15:09:27;12.20;99.90
7399;DHT22;3740;50.700;7.184;2024-02-14T15:11:53;12.20;99.90
7399;DHT22;3740;50.700;7.184;2024-02-14T15:14:19;12.20;99.90
7399;DHT22;3740;50.700;7.184;2024-02-14T15:16:45;12.20;99.90
7399;DHT22;3740;50.700;7.184;2024-02-14T15:19:10;12.30;99.90
7399;DHT22;3740;50.700;7.184;2024-02-14T15:21:36;12.30;99.90
7399;DHT22;3740;50.700;7.184;2024-02-14T15:24:02;12.30;99.90
7399;DHT22;3740;50.700;7.184;2024-02-14T15:26:29;12.30;99.90
7399;DHT22;3740;50.700;7.184;2024-02-14T15:28:55;13.30;99.90
7399;DHT22;3740;50.700;7.184;2024-02-14T15:31:44;12.30;99.90
7399;DHT22;3740;50.700;7.184;2024-02-14T15:34:28;12.30;99.90
7399;DHT22;3740;50.700;7.184;2024-02-14T15:36:54;12.30;99.90
7399;DHT22;3740;50.700;7.184;2024-02-14T15:39:20;12.30;99.90
7399;DHT22;3740;50.700;7.184;2024-02-14T15:41:45;12.20;99.90
7399;DHT22;3740;50.700;7.184;2024-02-14T15:44:12;12.20;99.90
7399;DHT22;3740;50.700;7.184;2024-02-14T15:46:37;12.10;99.90
7399;DHT22;3740;50.700;7.184;2024-02-14T15:49:03;12.10;99.90
7399;DHT22;3740;50.700;7.184;2024-02-14T15:51:28;12.10;99.90
7399;DHT22;3740;50.700;7.184;2024-02-14T15:53:54;12.00;99.90
7399;DHT22;3740;50.700;7.184;2024-02-14T15:56:19;12.00;99.90
7399;DHT22;3740;50.700;7.184;2024-02-14T15:58:45;12.00;99.90